Latest Weather Observations for Lihou Reef Lighthouse

IDQ60801

Issued at 2:02 pm EST Sunday 17 December 2017 (issued every 30 minutes, with the page automatically refreshed every 10 minutes)

About weather observations | Map of weather stations | Latest weather observations for QLD | Other Formats
Station Details ID: 200880 Name: LIHOU REEF LIGHTHOUSE Lat: -17.13 Lon: 152.15 Height: 0.0 m
Data from the previous 72 hours. | See also: Recent months at Lihou Reef Lighthouse
Date/Time
EST
Temp
°C
App
Temp
°C
Dew
Point
°C
Rel
Hum
%
Delta-T
°C
Wind Press
QNH
hPa
Press
MSL
hPa
Rain since
9am
mm
Dir  Spd
km/h
Gust
km/h
Spd
kts
Gust
kts
17/02:00pm 27.8 - - - - SSE 37 44 20 24 1007.7 1007.6 -
17/01:30pm 27.6 - - - - SSE 37 44 20 24 1007.9 1007.8 -
17/01:00pm 27.5 - - - - SSE 37 43 20 23 1008.4 1008.3 -
17/12:30pm 27.6 - - - - SSE 37 43 20 23 1008.5 1008.4 -
17/12:00pm 27.6 - - - - SSE 37 44 20 24 1008.8 1008.7 -
17/11:30am 27.6 - - - - SSE 37 43 20 23 1009.2 1009.1 -
17/11:00am 27.6 - - - - SSE 35 43 19 23 1009.4 1009.3 -
17/10:30am 27.7 - - - - SSE 35 43 19 23 1009.5 1009.4 -
17/10:00am 27.7 - - - - SSE 37 43 20 23 1009.8 1009.7 -
17/09:30am 27.6 - - - - SSE 35 43 19 23 1009.9 1009.8 -
17/09:00am 27.6 - - - - SSE 37 44 20 24 1009.8 1009.7 -
17/08:30am 27.4 - - - - SSE 37 44 20 24 1009.6 1009.5 -
17/08:00am 27.5 - - - - SSE 35 43 19 23 1009.5 1009.4 -
17/07:30am 27.2 - - - - SSE 39 46 21 25 1009.1 1009.0 -
17/07:00am 27.2 - - - - SSE 39 46 21 25 1008.7 1008.6 -
17/06:30am 27.3 - - - - SSE 37 44 20 24 1008.5 1008.4 -
17/06:00am 27.0 - - - - SSE 37 43 20 23 1008.3 1008.2 -
17/05:30am 27.1 - - - - SSE 35 43 19 23 1007.9 1007.8 -
17/05:00am 26.9 - - - - SSE 35 43 19 23 1007.7 1007.6 -
17/04:30am 27.0 - - - - SSE 35 41 19 22 1007.5 1007.4 -
17/04:00am 27.0 - - - - SSE 35 43 19 23 1007.4 1007.3 -
17/03:30am 26.9 - - - - SSE 37 43 20 23 1007.2 1007.1 -
17/03:00am 27.2 - - - - SSE 35 43 19 23 1007.4 1007.3 -
17/02:30am 27.1 - - - - SSE 37 44 20 24 1007.4 1007.3 -
17/02:00am 27.1 - - - - SSE 39 44 21 24 1007.6 1007.5 -
17/01:30am 27.1 - - - - SE 41 46 22 25 1007.8 1007.7 -
17/01:00am 27.0 - - - - SSE 39 44 21 24 1008.1 1008.0 -
17/12:30am 27.1 - - - - SE 41 46 22 25 1008.3 1008.2 -
17/12:00am 27.0 - - - - SSE 41 46 22 25 1008.4 1008.3 -
 
Date/Time
EST
Temp
°C
App
Temp
°C
Dew
Point
°C
Rel
Hum
%
Delta-T
°C
Wind Press
QNH
hPa
Press
MSL
hPa
Rain since
9am
mm
Dir  Spd
km/h
Gust
km/h
Spd
kts
Gust
kts
16/11:30pm 27.2 - - - - SSE 41 46 22 25 1008.7 1008.6 -
16/11:00pm 27.2 - - - - SSE 39 44 21 24 1009.2 1009.1 -
16/10:30pm 27.3 - - - - SSE 39 44 21 24 1009.5 1009.4 -
16/10:00pm 27.4 - - - - SSE 39 46 21 25 1009.8 1009.7 -
16/09:30pm 27.3 - - - - SE 35 43 19 23 1009.9 1009.8 -
16/09:00pm 27.4 - - - - SSE 39 44 21 24 1009.9 1009.8 -
16/08:30pm 27.3 - - - - SSE 37 44 20 24 1009.7 1009.6 -
16/08:00pm 27.5 - - - - SE 37 43 20 23 1009.7 1009.6 -
16/07:30pm 27.4 - - - - SSE 37 43 20 23 1009.5 1009.4 -
16/07:00pm 27.5 - - - - SSE 37 43 20 23 1009.3 1009.2 -
16/06:30pm 27.6 - - - - SSE 35 43 19 23 1008.8 1008.7 -
16/06:00pm 27.4 - - - - SSE 39 48 21 26 1008.5 1008.4 -
16/05:30pm 27.6 - - - - SSE 39 48 21 26 1008.0 1007.9 -
16/05:00pm 27.5 - - - - SSE 41 48 22 26 1007.6 1007.5 -
16/04:30pm 27.6 - - - - SSE 37 46 20 25 1007.6 1007.5 -
16/04:00pm 27.7 - - - - SSE 39 44 21 24 1007.4 1007.3 -
16/03:30pm 27.6 - - - - SE 37 43 20 23 1007.3 1007.2 -
16/03:00pm 27.9 - - - - SSE 37 46 20 25 1007.5 1007.4 -
16/02:30pm 27.6 - - - - SSE 37 43 20 23 1007.5 1007.4 -
16/02:00pm 27.1 - - - - SSE 39 48 21 26 1007.7 1007.6 -
16/01:30pm 27.6 - - - - SSE 39 44 21 24 1008.1 1008.0 -
16/01:00pm 27.7 - - - - SSE 37 46 20 25 1008.6 1008.5 -
16/12:30pm 27.7 - - - - SSE 39 43 21 23 1008.8 1008.7 -
16/12:00pm 27.7 - - - - SSE 33 41 18 22 1009.2 1009.1 -
16/11:30am 27.6 - - - - SSE 35 43 19 23 1009.4 1009.3 -
16/11:00am 27.8 - - - - SSE 33 39 18 21 1009.7 1009.6 -
16/10:30am 27.7 - - - - SSE 33 39 18 21 1009.9 1009.8 -
16/10:00am 27.6 - - - - SSE 35 41 19 22 1010.0 1009.9 -
16/09:30am 27.7 - - - - SSE 32 39 17 21 1010.2 1010.1 -
16/09:00am 27.7 - - - - SSE 35 41 19 22 1010.2 1010.1 -
16/08:30am 27.6 - - - - SSE 33 39 18 21 1010.0 1009.9 -
16/08:00am 27.7 - - - - SSE 35 41 19 22 1010.0 1009.9 -
16/07:30am 27.6 - - - - SSE 32 39 17 21 1010.0 1009.9 -
16/07:00am 27.6 - - - - SE 35 43 19 23 1009.7 1009.6 -
16/06:30am 27.4 - - - - SE 33 39 18 21 1009.4 1009.3 -
16/06:00am 27.4 - - - - SE 35 41 19 22 1009.0 1008.9 -
16/05:30am 27.4 - - - - SE 33 37 18 20 1008.5 1008.4 -
16/05:00am 27.2 - - - - SE 33 39 18 21 1008.1 1008.0 -
16/04:30am 27.4 - - - - SE 32 39 17 21 1007.9 1007.8 -
16/04:00am 27.2 - - - - SE 35 39 19 21 1007.5 1007.4 -
16/03:30am 27.3 - - - - SE 35 41 19 22 1007.2 1007.1 -
16/03:00am 27.4 - - - - SE 32 37 17 20 1007.2 1007.1 -
16/02:30am 27.5 - - - - SE 30 35 16 19 1007.2 1007.1 -
16/02:00am 27.2 - - - - SE 33 41 18 22 1007.2 1007.1 -
16/01:30am 27.3 - - - - SE 33 37 18 20 1007.4 1007.3 -
16/01:00am 27.5 - - - - SE 32 37 17 20 1007.8 1007.7 -
16/12:30am 27.3 - - - - SE 32 37 17 20 1008.0 1007.9 -
16/12:00am 27.4 - - - - SE 32 35 17 19 1008.3 1008.2 -
 
Date/Time
EST
Temp
°C
App
Temp
°C
Dew
Point
°C
Rel
Hum
%
Delta-T
°C
Wind Press
QNH
hPa
Press
MSL
hPa
Rain since
9am
mm
Dir  Spd
km/h
Gust
km/h
Spd
kts
Gust
kts
15/11:30pm 27.3 - - - - SE 30 35 16 19 1008.6 1008.5 -
15/11:00pm 27.5 - - - - SE 30 35 16 19 1008.9 1008.8 -
15/10:30pm 27.5 - - - - SE 30 35 16 19 1009.1 1009.0 -
15/10:00pm 27.5 - - - - SE 32 37 17 20 1009.0 1008.9 -
15/09:30pm 27.4 - - - - SE 32 37 17 20 1008.7 1008.6 -
15/09:00pm 27.5 - - - - SE 33 37 18 20 1008.7 1008.6 -
15/08:30pm 27.4 - - - - SE 30 35 16 19 1008.6 1008.5 -
15/08:00pm 27.5 - - - - SE 32 37 17 20 1008.4 1008.3 -
15/07:30pm 27.5 - - - - SE 32 37 17 20 1008.1 1008.0 -
15/07:00pm 27.6 - - - - SE 32 41 17 22 1007.9 1007.8 -
15/06:30pm 27.6 - - - - SSE 35 43 19 23 1007.5 1007.4 -
15/06:00pm 27.6 - - - - SSE 33 37 18 20 1007.2 1007.1 -
15/05:30pm 27.6 - - - - SSE 32 37 17 20 1006.9 1006.8 -
15/05:00pm 27.7 - - - - SSE 32 35 17 19 1006.6 1006.5 -
15/04:30pm 27.6 - - - - SSE 32 35 17 19 1006.3 1006.2 -
15/04:00pm 27.7 - - - - SSE 28 32 15 17 1006.0 1005.9 -
15/03:30pm 27.6 - - - - SSE 26 32 14 17 1005.9 1005.8 -
15/03:00pm 27.7 - - - - SSE 26 32 14 17 1005.8 1005.7 -
15/02:30pm 27.8 - - - - SSE 26 30 14 16 1005.9 1005.8 -
15/02:00pm 27.6 - - - - SSE 26 33 14 18 1005.9 1005.8 -
15/01:30pm 27.6 - - - - SSE 28 32 15 17 1006.1 1006.0 -
15/01:00pm 27.4 - - - - SSE 26 30 14 16 1006.6 1006.5 -
15/12:30pm 27.3 - - - - S 26 30 14 16 1007.1 1007.0 -
15/12:00pm 27.3 - - - - S 26 32 14 17 1007.5 1007.4 -
15/11:30am 27.4 - - - - SSE 26 32 14 17 1008.0 1007.9 -
15/11:00am 27.3 - - - - SSE 26 32 14 17 1008.2 1008.1 -
15/10:30am 27.3 - - - - SSE 28 32 15 17 1008.2 1008.1 -
15/10:00am 27.2 - - - - S 26 30 14 16 1008.5 1008.4 -
15/09:30am 27.4 - - - - SSE 28 32 15 17 1008.6 1008.5 -
15/09:00am 27.3 - - - - SSE 28 33 15 18 1008.5 1008.4 -
15/08:30am 27.4 - - - - SSE 30 33 16 18 1008.5 1008.4 -
15/08:00am 27.2 - - - - SSE 30 33 16 18 1008.4 1008.3 -
15/07:30am 26.9 - - - - S 30 35 16 19 1008.3 1008.2 -
15/07:00am 27.0 - - - - SSE 28 33 15 18 1008.2 1008.1 -
15/06:30am 26.9 - - - - SSE 28 32 15 17 1007.9 1007.8 -
15/06:00am 26.9 - - - - SSE 26 30 14 16 1007.6 1007.5 -
15/05:30am 26.9 - - - - SSE 26 30 14 16 1007.2 1007.1 -
15/05:00am 26.8 - - - - SSE 26 32 14 17 1006.8 1006.7 -
15/04:30am 26.6 - - - - SSE 28 32 15 17 1006.5 1006.4 -
15/04:00am 26.6 - - - - SE 28 32 15 17 1006.3 1006.2 -
15/03:30am 26.6 - - - - SE 28 32 15 17 1006.1 1006.0 -
15/03:00am 26.6 - - - - SSE 26 32 14 17 1006.1 1006.0 -
15/02:30am 26.8 - - - - SSE 28 35 15 19 1006.3 1006.2 -
15/02:00am 26.7 - - - - SSE 28 32 15 17 1006.4 1006.3 -
15/01:30am 26.7 - - - - SSE 30 35 16 19 1006.6 1006.5 -
15/01:00am 26.7 - - - - SSE 28 33 15 18 1006.8 1006.7 -
15/12:30am 26.9 - - - - SSE 28 33 15 18 1007.2 1007.1 -
15/12:00am 26.9 - - - - SSE 28 - 15 - - 1007.7 -
 
Date/Time
EST
Temp
°C
App
Temp
°C
Dew
Point
°C
Rel
Hum
%
Delta-T
°C
Wind Press
QNH
hPa
Press
MSL
hPa
Rain since
9am
mm
Dir  Spd
km/h
Gust
km/h
Spd
kts
Gust
kts
14/11:30pm 26.8 - - - - SE 28 33 15 18 1008.1 1008.0 -
14/11:00pm 26.9 - - - - SSE 30 35 16 19 1008.5 1008.4 -
14/10:30pm 26.9 - - - - SSE 28 32 15 17 1008.8 1008.7 -
14/10:00pm 27.0 - - - - SSE 26 32 14 17 1008.7 1008.6 -
14/09:30pm 26.9 - - - - SE 26 32 14 17 1008.6 1008.5 -
14/09:00pm 26.9 - - - - SE 28 32 15 17 1008.4 1008.3 -
14/08:30pm 26.9 - - - - SE 28 32 15 17 1008.1 1008.0 -
14/08:00pm 27.0 - - - - SE 28 32 15 17 1008.0 1007.9 -
14/07:30pm 27.1 - - - - SE 28 33 15 18 1007.8 1007.7 -
14/07:00pm 27.0 - - - - SSE 30 35 16 19 1007.5 1007.4 -
14/06:30pm 27.1 - - - - SSE 28 35 15 19 1007.3 1007.2 -
14/06:00pm 27.1 - - - - SSE 26 32 14 17 1007.1 1007.0 -
14/05:30pm 27.2 - - - - SSE 28 33 15 18 1006.8 1006.7 -
14/05:00pm 27.3 - - - - SSE 26 32 14 17 1006.5 1006.4 -
14/04:30pm 27.4 - - - - SSE 26 32 14 17 1006.3 1006.2 -
14/04:00pm 27.4 - - - - SSE 28 32 15 17 1006.1 1006.0 -
14/03:30pm 27.3 - - - - SSE 26 32 14 17 1006.0 1005.9 -
14/03:00pm 27.4 - - - - SSE 26 32 14 17 1006.1 1006.0 -
14/02:30pm 27.2 - - - - SSE 28 32 15 17 1006.4 1006.3 -

Other Formats:

Comma delimited format used in spreadsheet applications
http://www.bom.gov.au/fwo/IDQ60801/IDQ60801.94293.axf

JavaScript Object Notation format (JSON) in row-major order
http://www.bom.gov.au/fwo/IDQ60801/IDQ60801.94293.json